Time;durP1;ratioP1;P1;durP2;ratioP2;P2;SDS_P1;SDS_P2;PMS_P1;PMS_P2;Temp;Humidity;BMP_temperature;BMP_pressure;BME280_temperature;BME280_humidity;BME280_pressure;Samples;Min_cycle;Max_cycle;Signal;HPM_P1;HPM_P2
2024/01/12 00:00:11;;;;;;;56.83;4.30;;;;;;;;;;5055542;28;20627;-74
2024/01/12 00:02:38;;;;;;;57.45;4.40;;;;;;;;;;5048523;28;20202;-75
2024/01/12 00:05:06;;;;;;;56.80;4.00;;;;;;;;;;5054518;28;20206;-75
2024/01/12 00:07:34;;;;;;;56.20;3.25;;;;;;;;;;5054752;28;20213;-75
2024/01/12 00:10:01;;;;;;;56.28;4.25;;;;;;;;;;5054804;28;20244;-75
2024/01/12 00:12:29;;;;;;;56.47;3.60;;;;;;;;;;5054830;28;20209;-75
2024/01/12 00:14:57;;;;;;;55.75;3.25;;;;;;;;;;5054502;28;20221;-75
2024/01/12 00:17:24;;;;;;;56.53;3.33;;;;;;;;;;5054791;28;20206;-75
2024/01/12 00:19:51;;;;;;;56.28;2.70;;;;;;;;;;5055063;28;20296;-75
2024/01/12 00:22:18;;;;;;;56.47;3.00;;;;;;;;;;5054287;28;20692;-75
2024/01/12 00:24:46;;;;;;;56.30;2.85;;;;;;;;;;5054535;28;20230;-75
2024/01/12 00:27:13;;;;;;;56.70;4.30;;;;;;;;;;5054251;28;20755;-75
2024/01/12 00:29:41;;;;;;;56.60;2.83;;;;;;;;;;5054920;28;20321;-75
2024/01/12 00:32:08;;;;;;;56.30;4.05;;;;;;;;;;5054306;28;20588;-75
2024/01/12 00:34:36;;;;;;;58.92;5.13;;;;;;;;;;5053923;28;20230;-75
2024/01/12 00:37:03;;;;;;;55.88;3.10;;;;;;;;;;5053940;28;20670;-74
2024/01/12 00:39:30;;;;;;;56.28;2.85;;;;;;;;;;5046402;28;20289;-75
2024/01/12 00:41:57;;;;;;;56.17;2.80;;;;;;;;;;5054542;28;20222;-75
2024/01/12 00:44:24;;;;;;;56.13;3.10;;;;;;;;;;5054218;28;20230;-75
2024/01/12 00:46:55;;;;;;;56.17;3.30;;;;;;;;;;5054242;28;20205;-75
2024/01/12 00:49:22;;;;;;;56.20;2.63;;;;;;;;;;5054134;28;20206;-75
2024/01/12 00:51:50;;;;;;;55.88;3.10;;;;;;;;;;5053806;28;20229;-75
2024/01/12 00:54:17;;;;;;;56.17;2.70;;;;;;;;;;5053630;28;20221;-75
2024/01/12 00:56:44;;;;;;;56.47;3.67;;;;;;;;;;5054313;28;20210;-75
2024/01/12 00:59:11;;;;;;;56.08;2.88;;;;;;;;;;5054029;28;20202;-75
2024/01/12 01:01:38;;;;;;;56.20;2.70;;;;;;;;;;5053789;28;20670;-74
2024/01/12 01:04:06;;;;;;;56.95;4.03;;;;;;;;;;5053567;28;20233;-75
2024/01/12 01:06:34;;;;;;;56.25;2.95;;;;;;;;;;5053897;28;20202;-75
2024/01/12 01:09:01;;;;;;;55.90;2.85;;;;;;;;;;5053411;28;20228;-75
2024/01/12 01:11:28;;;;;;;55.25;2.80;;;;;;;;;;5053416;28;20590;-74
2024/01/12 01:13:55;;;;;;;55.97;3.38;;;;;;;;;;5053637;28;20234;-75
2024/01/12 01:16:23;;;;;;;56.08;2.92;;;;;;;;;;5053257;28;20297;-75
2024/01/12 01:18:50;;;;;;;61.17;4.85;;;;;;;;;;5053670;28;20273;-75
2024/01/12 01:21:19;;;;;;;57.58;5.60;;;;;;;;;;5053773;28;20577;-75
2024/01/12 01:23:46;;;;;;;56.03;2.92;;;;;;;;;;5053362;28;20222;-75
2024/01/12 01:26:12;;;;;;;56.08;3.10;;;;;;;;;;5053774;28;20208;-75
2024/01/12 01:28:39;;;;;;;56.40;3.08;;;;;;;;;;5053146;28;20261;-75
2024/01/12 01:31:06;;;;;;;56.03;3.20;;;;;;;;;;5053179;28;20229;-75
2024/01/12 01:33:33;;;;;;;55.92;4.10;;;;;;;;;;5053979;28;20218;-74
2024/01/12 01:36:00;;;;;;;57.63;4.43;;;;;;;;;;5052874;28;20686;-74
2024/01/12 01:38:29;;;;;;;56.40;2.97;;;;;;;;;;5053584;28;20212;-74
2024/01/12 01:40:56;;;;;;;56.10;3.08;;;;;;;;;;5053529;28;20577;-74
2024/01/12 01:43:23;;;;;;;55.95;2.85;;;;;;;;;;5053004;28;20233;-75
2024/01/12 01:45:50;;;;;;;56.30;3.00;;;;;;;;;;5052947;28;20301;-75
2024/01/12 01:48:17;;;;;;;56.22;3.13;;;;;;;;;;5053106;28;20205;-75
2024/01/12 01:50:44;;;;;;;56.17;3.55;;;;;;;;;;5052999;28;20226;-75
2024/01/12 01:53:12;;;;;;;55.97;2.85;;;;;;;;;;5052894;28;20714;-74
2024/01/12 01:55:40;;;;;;;56.20;3.25;;;;;;;;;;5052870;28;20213;-75
2024/01/12 01:58:08;;;;;;;56.60;3.10;;;;;;;;;;5052979;28;20648;-74
2024/01/12 02:00:35;;;;;;;55.97;2.92;;;;;;;;;;5053299;28;20220;-75
2024/01/12 02:03:03;;;;;;;55.95;3.15;;;;;;;;;;5052426;28;20664;-75
2024/01/12 02:05:31;;;;;;;57.08;4.25;;;;;;;;;;5052255;28;20571;-75
2024/01/12 02:07:58;;;;;;;56.60;3.53;;;;;;;;;;5052305;28;20651;-75
2024/01/12 02:10:25;;;;;;;56.03;3.00;;;;;;;;;;5052235;28;20769;-75
2024/01/12 02:12:54;;;;;;;57.65;3.92;;;;;;;;;;5051987;28;20206;-74
2024/01/12 02:15:21;;;;;;;56.97;4.25;;;;;;;;;;5051827;28;20212;-74
2024/01/12 02:17:48;;;;;;;58.63;3.85;;;;;;;;;;5052284;28;20224;-75
2024/01/12 02:20:15;;;;;;;57.53;4.95;;;;;;;;;;5051091;28;20209;-74
2024/01/12 02:22:44;;;;;;;56.40;3.00;;;;;;;;;;5052030;28;20292;-75
2024/01/12 02:25:11;;;;;;;55.33;3.10;;;;;;;;;;5051658;28;20216;-74
2024/01/12 02:27:38;;;;;;;57.20;4.18;;;;;;;;;;5051730;28;20206;-74
2024/01/12 02:30:06;;;;;;;56.08;3.10;;;;;;;;;;5052214;28;20206;-74
2024/01/12 02:32:33;;;;;;;55.75;3.15;;;;;;;;;;5052268;28;20206;-75
2024/01/12 02:35:00;;;;;;;56.15;3.15;;;;;;;;;;5051997;28;20280;-75
2024/01/12 02:37:27;;;;;;;56.50;2.85;;;;;;;;;;5051842;28;20670;-74
2024/01/12 02:39:56;;;;;;;58.83;5.45;;;;;;;;;;5051978;28;20216;-75
2024/01/12 02:42:23;;;;;;;57.00;3.58;;;;;;;;;;5051767;28;20205;-74
2024/01/12 02:44:50;;;;;;;56.50;3.63;;;;;;;;;;5051727;28;20229;-73
2024/01/12 02:47:17;;;;;;;56.30;2.90;;;;;;;;;;5051211;28;20206;-73
2024/01/12 02:49:44;;;;;;;56.08;3.10;;;;;;;;;;5051791;28;20662;-73
2024/01/12 02:52:11;;;;;;;56.42;3.58;;;;;;;;;;5052012;28;20234;-73
2024/01/12 02:54:38;;;;;;;56.30;2.90;;;;;;;;;;5051907;28;20225;-73
2024/01/12 02:57:07;;;;;;;56.50;2.90;;;;;;;;;;5051975;28;20296;-73
2024/01/12 02:59:34;;;;;;;56.28;3.55;;;;;;;;;;5051515;28;20205;-75
2024/01/12 03:02:01;;;;;;;55.75;2.90;;;;;;;;;;5051883;28;20213;-73
2024/01/12 03:04:28;;;;;;;56.42;2.85;;;;;;;;;;5051457;28;20237;-75
2024/01/12 03:06:56;;;;;;;55.78;2.75;;;;;;;;;;5051205;28;20772;-73
2024/01/12 03:09:23;;;;;;;56.58;2.92;;;;;;;;;;5051296;28;20206;-75
2024/01/12 03:11:51;;;;;;;56.50;3.70;;;;;;;;;;5051337;28;20598;-73
2024/01/12 03:14:19;;;;;;;56.05;3.30;;;;;;;;;;5051473;28;20311;-75
2024/01/12 03:16:46;;;;;;;57.08;4.47;;;;;;;;;;5050818;28;20224;-73
2024/01/12 03:19:13;;;;;;;56.47;2.90;;;;;;;;;;5051612;28;20607;-74
2024/01/12 03:21:41;;;;;;;57.60;4.63;;;;;;;;;;5051650;28;20589;-74
2024/01/12 03:24:08;;;;;;;58.25;3.70;;;;;;;;;;5051223;28;20252;-74
2024/01/12 03:26:37;;;;;;;56.28;2.88;;;;;;;;;;5050999;28;20202;-74
2024/01/12 03:29:04;;;;;;;55.97;2.88;;;;;;;;;;5051403;28;20563;-74
2024/01/12 03:31:33;;;;;;;56.90;4.05;;;;;;;;;;5051963;28;20252;-74
2024/01/12 03:34:00;;;;;;;56.50;3.83;;;;;;;;;;5057973;28;20221;-73
2024/01/12 03:36:27;;;;;;;56.03;2.80;;;;;;;;;;5057860;28;20215;-73
2024/01/12 03:38:55;;;;;;;56.10;3.50;;;;;;;;;;5058208;28;20209;-74
2024/01/12 03:41:22;;;;;;;55.85;2.78;;;;;;;;;;5057762;28;20206;-73
2024/01/12 03:43:49;;;;;;;56.22;3.17;;;;;;;;;;5057445;28;20225;-73
2024/01/12 03:46:16;;;;;;;55.85;2.85;;;;;;;;;;5057355;28;20212;-74
2024/01/12 03:48:45;;;;;;;55.60;2.80;;;;;;;;;;5058093;28;20288;-73
2024/01/12 03:51:12;;;;;;;56.10;3.00;;;;;;;;;;5057624;28;20260;-74
2024/01/12 03:53:39;;;;;;;56.20;2.85;;;;;;;;;;5049401;28;20224;-73
2024/01/12 03:56:06;;;;;;;56.08;3.00;;;;;;;;;;5055475;28;20206;-74
2024/01/12 03:58:34;;;;;;;55.30;3.00;;;;;;;;;;5056575;28;20202;-74
2024/01/12 04:01:01;;;;;;;56.28;3.58;;;;;;;;;;5057626;28;20205;-73
2024/01/12 04:03:28;;;;;;;57.17;3.85;;;;;;;;;;5057565;28;20229;-74
2024/01/12 04:05:56;;;;;;;56.80;3.95;;;;;;;;;;5057381;28;20685;-73
2024/01/12 04:08:23;;;;;;;56.20;3.20;;;;;;;;;;5057438;28;20220;-73
2024/01/12 04:10:50;;;;;;;55.97;3.42;;;;;;;;;;5057308;28;20568;-74
2024/01/12 04:13:17;;;;;;;56.13;2.95;;;;;;;;;;5057578;28;20260;-73
2024/01/12 04:15:45;;;;;;;55.88;3.50;;;;;;;;;;5057407;28;20209;-74
2024/01/12 04:18:12;;;;;;;56.30;2.78;;;;;;;;;;5057153;28;20218;-73
2024/01/12 04:20:39;;;;;;;55.97;2.80;;;;;;;;;;5057419;28;20197;-74
2024/01/12 04:23:07;;;;;;;55.75;2.88;;;;;;;;;;5057609;28;20236;-74
2024/01/12 04:25:34;;;;;;;55.95;3.40;;;;;;;;;;5057121;28;20212;-74
2024/01/12 04:28:01;;;;;;;56.22;3.30;;;;;;;;;;5057276;28;20216;-74
2024/01/12 04:30:28;;;;;;;57.40;3.83;;;;;;;;;;5057185;28;20213;-74
2024/01/12 04:32:56;;;;;;;56.33;2.50;;;;;;;;;;5057432;28;20225;-74
2024/01/12 04:35:23;;;;;;;57.42;4.35;;;;;;;;;;5057171;28;20202;-74
2024/01/12 04:37:50;;;;;;;55.67;3.53;;;;;;;;;;5057590;28;20208;-74
2024/01/12 04:40:18;;;;;;;56.40;2.75;;;;;;;;;;5057053;28;20210;-74
2024/01/12 04:42:45;;;;;;;56.50;3.50;;;;;;;;;;5057207;28;20674;-74
2024/01/12 04:45:12;;;;;;;55.78;3.00;;;;;;;;;;5053197;28;20296;-74
2024/01/12 04:47:39;;;;;;;55.85;2.53;;;;;;;;;;5053831;28;20208;-74
2024/01/12 04:50:07;;;;;;;55.88;2.75;;;;;;;;;;5054480;28;20214;-74
2024/01/12 04:52:34;;;;;;;55.67;2.80;;;;;;;;;;5054140;28;20229;-73
2024/01/12 04:55:01;;;;;;;56.58;4.10;;;;;;;;;;5053785;28;20229;-74
2024/01/12 04:57:29;;;;;;;56.10;2.92;;;;;;;;;;5053859;28;20206;-74
2024/01/12 04:59:57;;;;;;;55.85;2.60;;;;;;;;;;5054085;28;20206;-73
2024/01/12 05:02:24;;;;;;;56.38;3.30;;;;;;;;;;5053766;28;20216;-74
2024/01/12 05:04:51;;;;;;;55.78;2.67;;;;;;;;;;5053748;28;20232;-74
2024/01/12 05:07:18;;;;;;;56.50;3.20;;;;;;;;;;5053970;28;20209;-74
2024/01/12 05:09:45;;;;;;;56.40;2.88;;;;;;;;;;5053659;28;20216;-74
2024/01/12 05:12:12;;;;;;;55.53;3.30;;;;;;;;;;5053583;28;20229;-74
2024/01/12 05:14:41;;;;;;;55.88;3.10;;;;;;;;;;5053656;28;20225;-74
2024/01/12 05:17:08;;;;;;;56.20;3.50;;;;;;;;;;5053801;28;20217;-74
2024/01/12 05:19:35;;;;;;;56.50;3.53;;;;;;;;;;5053204;28;20662;-74
2024/01/12 05:22:02;;;;;;;56.60;3.83;;;;;;;;;;5053643;28;20574;-74
2024/01/12 05:24:29;;;;;;;55.53;3.17;;;;;;;;;;5053339;28;20249;-74
2024/01/12 05:26:56;;;;;;;56.58;3.10;;;;;;;;;;5053298;28;20213;-74
2024/01/12 05:29:24;;;;;;;55.90;2.80;;;;;;;;;;5053557;28;20209;-74
2024/01/12 05:31:52;;;;;;;55.85;3.03;;;;;;;;;;5053285;28;20224;-74
2024/01/12 05:34:19;;;;;;;56.30;3.50;;;;;;;;;;5053084;28;20240;-74
2024/01/12 05:36:46;;;;;;;57.35;4.32;;;;;;;;;;5052907;28;20210;-74
2024/01/12 05:39:13;;;;;;;56.40;3.30;;;;;;;;;;5053190;28;20210;-74
2024/01/12 05:41:40;;;;;;;55.85;3.03;;;;;;;;;;5053129;28;20202;-74
2024/01/12 05:44:07;;;;;;;56.80;3.95;;;;;;;;;;5052736;28;20221;-74
2024/01/12 05:46:34;;;;;;;56.30;3.22;;;;;;;;;;5052812;28;20225;-74
2024/01/12 05:49:04;;;;;;;55.53;3.00;;;;;;;;;;5053116;28;20210;-74
2024/01/12 05:51:31;;;;;;;56.15;2.90;;;;;;;;;;5052778;28;20221;-74
2024/01/12 05:53:58;;;;;;;55.75;2.80;;;;;;;;;;5052692;28;20732;-74
2024/01/12 05:56:25;;;;;;;57.15;3.90;;;;;;;;;;5052408;28;20601;-74
2024/01/12 05:58:52;;;;;;;56.05;2.80;;;;;;;;;;5052863;28;20210;-74
2024/01/12 06:01:19;;;;;;;55.92;3.03;;;;;;;;;;5053110;28;20705;-74
2024/01/12 06:03:46;;;;;;;56.30;3.50;;;;;;;;;;5052802;28;20601;-74
2024/01/12 06:06:15;;;;;;;56.05;3.10;;;;;;;;;;5053009;28;20240;-74
2024/01/12 06:08:42;;;;;;;55.97;3.08;;;;;;;;;;5052786;28;20658;-74
2024/01/12 06:11:09;;;;;;;56.17;3.05;;;;;;;;;;5052658;28;20217;-74
2024/01/12 06:13:36;;;;;;;55.22;2.95;;;;;;;;;;5052103;28;20221;-75
2024/01/12 06:16:03;;;;;;;56.38;3.20;;;;;;;;;;5052822;28;20418;-74
2024/01/12 06:18:30;;;;;;;55.92;2.90;;;;;;;;;;5052144;28;20650;-74
2024/01/12 06:20:57;;;;;;;56.38;2.90;;;;;;;;;;5052347;28;20208;-74
2024/01/12 06:23:26;;;;;;;56.08;2.90;;;;;;;;;;5052385;28;20721;-75
2024/01/12 06:25:53;;;;;;;56.30;3.33;;;;;;;;;;5051982;28;20205;-74
2024/01/12 06:28:20;;;;;;;56.47;3.42;;;;;;;;;;5052048;28;20296;-74
2024/01/12 06:30:47;;;;;;;56.50;3.38;;;;;;;;;;5044082;28;20206;-75
2024/01/12 06:33:15;;;;;;;56.42;2.97;;;;;;;;;;5051758;28;20316;-74
2024/01/12 06:35:42;;;;;;;56.05;3.00;;;;;;;;;;5051654;28;20666;-74
2024/01/12 06:38:10;;;;;;;56.60;4.30;;;;;;;;;;5052010;28;20206;-74
2024/01/12 06:40:38;;;;;;;56.60;3.58;;;;;;;;;;5052010;28;20672;-74
2024/01/12 06:43:05;;;;;;;56.20;3.20;;;;;;;;;;5051828;28;20230;-74
2024/01/12 06:45:32;;;;;;;55.95;2.90;;;;;;;;;;5051287;28;20208;-74
2024/01/12 06:48:00;;;;;;;58.65;4.57;;;;;;;;;;5051490;28;20210;-74
2024/01/12 06:50:28;;;;;;;56.80;4.40;;;;;;;;;;5051452;28;20221;-74
2024/01/12 06:52:56;;;;;;;55.88;2.80;;;;;;;;;;5051894;28;20240;-74
2024/01/12 06:55:23;;;;;;;56.10;3.03;;;;;;;;;;5051069;28;20263;-74
2024/01/12 06:57:51;;;;;;;56.28;2.67;;;;;;;;;;5052046;28;20206;-74
2024/01/12 07:00:19;;;;;;;56.40;2.88;;;;;;;;;;5051845;28;20206;-74
2024/01/12 07:02:46;;;;;;;56.28;2.75;;;;;;;;;;5051427;28;20206;-74
2024/01/12 07:05:14;;;;;;;56.65;4.00;;;;;;;;;;5051632;28;20210;-74
2024/01/12 07:07:42;;;;;;;56.50;3.03;;;;;;;;;;5051008;28;20224;-74
2024/01/12 07:10:11;;;;;;;56.35;2.95;;;;;;;;;;5051440;28;20214;-74
2024/01/12 07:12:38;;;;;;;56.50;3.55;;;;;;;;;;5051695;28;20582;-74
2024/01/12 07:15:07;;;;;;;55.63;2.75;;;;;;;;;;5051849;28;20236;-74
2024/01/12 07:17:34;;;;;;;56.20;2.95;;;;;;;;;;5051599;28;20213;-74
2024/01/12 07:20:01;;;;;;;55.88;3.10;;;;;;;;;;5051571;28;20213;-74
2024/01/12 07:22:28;;;;;;;55.78;3.40;;;;;;;;;;5051417;28;20234;-74
2024/01/12 07:24:55;;;;;;;55.72;2.88;;;;;;;;;;5051452;28;20221;-74
2024/01/12 07:27:22;;;;;;;56.85;4.13;;;;;;;;;;5051234;28;20669;-74
2024/01/12 07:29:49;;;;;;;56.00;2.60;;;;;;;;;;5042998;28;20220;-74
2024/01/12 07:32:18;;;;;;;56.40;3.00;;;;;;;;;;5051351;28;20230;-74
2024/01/12 07:34:45;;;;;;;56.90;5.13;;;;;;;;;;5051144;28;20287;-74
2024/01/12 07:37:12;;;;;;;56.80;4.22;;;;;;;;;;5050867;28;20311;-74
2024/01/12 07:39:39;;;;;;;55.42;2.90;;;;;;;;;;5051384;28;20208;-74
2024/01/12 07:42:06;;;;;;;58.03;4.85;;;;;;;;;;5051403;28;20202;-74
2024/01/12 07:44:34;;;;;;;55.88;2.83;;;;;;;;;;5051121;28;20226;-72
2024/01/12 07:47:01;;;;;;;56.10;2.72;;;;;;;;;;5051060;28;20206;-75
2024/01/12 07:49:29;;;;;;;56.40;3.95;;;;;;;;;;5051308;28;20674;-74
2024/01/12 07:51:56;;;;;;;56.00;2.88;;;;;;;;;;5050739;28;20205;-74
2024/01/12 07:54:24;;;;;;;56.17;3.40;;;;;;;;;;5050959;28;20229;-74
2024/01/12 07:56:51;;;;;;;56.28;2.95;;;;;;;;;;5042978;28;20202;-74
2024/01/12 07:59:19;;;;;;;55.97;2.90;;;;;;;;;;5051429;28;20662;-74
2024/01/12 08:01:46;;;;;;;56.13;2.88;;;;;;;;;;5050818;28;20210;-74
2024/01/12 08:04:13;;;;;;;57.05;4.65;;;;;;;;;;5050835;28;20734;-74
2024/01/12 08:06:41;;;;;;;56.30;3.30;;;;;;;;;;5051256;28;20230;-74
2024/01/12 08:09:09;;;;;;;56.10;3.00;;;;;;;;;;5051502;28;20206;-74
2024/01/12 08:11:36;;;;;;;56.10;3.45;;;;;;;;;;5050976;28;20221;-75
2024/01/12 08:14:03;;;;;;;56.10;2.95;;;;;;;;;;5051339;28;20243;-75
2024/01/12 08:16:31;;;;;;;56.17;3.25;;;;;;;;;;5050832;28;20214;-75
2024/01/12 08:18:58;;;;;;;56.20;2.90;;;;;;;;;;5053761;28;20650;-75
2024/01/12 08:21:25;;;;;;;56.28;3.10;;;;;;;;;;5055794;28;20224;-75
2024/01/12 08:23:54;;;;;;;56.22;2.85;;;;;;;;;;5055059;28;20230;-76
2024/01/12 08:26:21;;;;;;;56.30;3.10;;;;;;;;;;5055300;28;20639;-75
2024/01/12 08:28:51;;;;;;;57.92;4.93;;;;;;;;;;5054957;28;20303;-75
2024/01/12 08:31:18;;;;;;;55.97;2.63;;;;;;;;;;5055025;28;20229;-75
2024/01/12 08:33:48;;;;;;;56.20;3.00;;;;;;;;;;5054546;28;20234;-75
2024/01/12 08:36:15;;;;;;;56.55;3.90;;;;;;;;;;5055237;28;20202;-75
2024/01/12 08:38:42;;;;;;;56.42;3.53;;;;;;;;;;5054955;28;20205;-75
2024/01/12 08:41:11;;;;;;;56.22;3.00;;;;;;;;;;5055501;28;20213;-75
2024/01/12 08:43:38;;;;;;;56.50;4.20;;;;;;;;;;5055192;28;20242;-76
2024/01/12 08:46:08;;;;;;;57.22;4.85;;;;;;;;;;5054973;28;20207;-75
2024/01/12 08:48:35;;;;;;;56.40;2.92;;;;;;;;;;5055680;28;20260;-76
2024/01/12 08:51:02;;;;;;;56.60;3.63;;;;;;;;;;5054492;28;20215;-75
2024/01/12 08:53:29;;;;;;;56.08;3.22;;;;;;;;;;5054007;28;20226;-76
2024/01/12 08:55:56;;;;;;;56.90;4.53;;;;;;;;;;5053845;28;20233;-75
2024/01/12 08:58:25;;;;;;;56.40;3.10;;;;;;;;;;5054258;28;20207;-76
2024/01/12 09:00:52;;;;;;;56.85;4.30;;;;;;;;;;5053917;28;20673;-76
2024/01/12 09:03:19;;;;;;;56.20;3.25;;;;;;;;;;5053890;28;20226;-76
2024/01/12 09:05:46;;;;;;;56.58;3.70;;;;;;;;;;5053889;28;20217;-76
2024/01/12 09:08:14;;;;;;;57.15;4.47;;;;;;;;;;5053833;28;20202;-76
2024/01/12 09:10:41;;;;;;;56.20;3.63;;;;;;;;;;5053621;28;20257;-76
2024/01/12 09:13:08;;;;;;;56.13;3.00;;;;;;;;;;5053435;28;20606;-76
2024/01/12 09:15:36;;;;;;;56.17;3.20;;;;;;;;;;5053681;28;20215;-74
2024/01/12 09:18:05;;;;;;;57.33;3.83;;;;;;;;;;5053557;28;20214;-75
2024/01/12 09:20:33;;;;;;;56.40;4.20;;;;;;;;;;5053923;28;20202;-75
2024/01/12 09:23:00;;;;;;;56.30;3.20;;;;;;;;;;5052751;28;20209;-75
2024/01/12 09:25:27;;;;;;;57.72;4.30;;;;;;;;;;5053212;28;20227;-75
2024/01/12 09:27:57;;;;;;;56.30;3.15;;;;;;;;;;5053193;28;20670;-75
2024/01/12 09:30:24;;;;;;;56.42;3.65;;;;;;;;;;5052795;28;20624;-75
2024/01/12 09:32:52;;;;;;;56.60;3.45;;;;;;;;;;5053512;28;20239;-75
2024/01/12 09:35:20;;;;;;;56.50;3.10;;;;;;;;;;5053047;28;20203;-75
2024/01/12 09:37:47;;;;;;;58.13;5.18;;;;;;;;;;5053053;28;20218;-75
2024/01/12 09:40:14;;;;;;;56.10;3.20;;;;;;;;;;5053004;28;20210;-75
2024/01/12 09:42:43;;;;;;;56.20;3.13;;;;;;;;;;5053453;28;20356;-75
2024/01/12 09:45:13;;;;;;;56.20;3.08;;;;;;;;;;5052955;28;20198;-76
2024/01/12 09:47:40;;;;;;;55.97;2.65;;;;;;;;;;5051393;28;20199;-76
2024/01/12 09:50:09;;;;;;;56.95;4.10;;;;;;;;;;5052833;28;20209;-76
2024/01/12 09:52:36;;;;;;;56.45;3.50;;;;;;;;;;5052389;28;20599;-76
2024/01/12 09:55:04;;;;;;;56.20;3.17;;;;;;;;;;5052804;28;20231;-76
2024/01/12 09:57:31;;;;;;;56.17;3.40;;;;;;;;;;5052812;28;20215;-77
2024/01/12 09:59:59;;;;;;;56.28;3.22;;;;;;;;;;5053349;28;20198;-76
2024/01/12 10:02:26;;;;;;;56.47;3.50;;;;;;;;;;5053053;28;20211;-77
2024/01/12 10:04:54;;;;;;;56.30;3.33;;;;;;;;;;5052830;28;20591;-75
2024/01/12 10:07:22;;;;;;;60.55;3.95;;;;;;;;;;5052335;28;20217;-75
2024/01/12 10:09:49;;;;;;;56.70;3.50;;;;;;;;;;5052896;28;20215;-75
2024/01/12 10:12:16;;;;;;;57.58;3.90;;;;;;;;;;5052523;28;20303;-75
2024/01/12 10:14:43;;;;;;;56.38;3.20;;;;;;;;;;5052544;28;20239;-75
2024/01/12 10:17:11;;;;;;;56.75;3.22;;;;;;;;;;5052587;28;20565;-75
2024/01/12 10:19:38;;;;;;;56.13;2.80;;;;;;;;;;5052132;28;20260;-76
2024/01/12 10:22:06;;;;;;;56.87;3.93;;;;;;;;;;5052472;28;20447;-75
2024/01/12 10:24:34;;;;;;;56.90;4.10;;;;;;;;;;5052574;28;20471;-76
2024/01/12 10:27:03;;;;;;;57.90;3.87;;;;;;;;;;5052037;28;20926;-76
2024/01/12 10:29:30;;;;;;;57.73;4.83;;;;;;;;;;5052221;28;20813;-76
2024/01/12 10:31:57;;;;;;;57.20;3.07;;;;;;;;;;5051929;28;20560;-76
2024/01/12 10:34:25;;;;;;;59.50;6.27;;;;;;;;;;5051981;28;20502;-76
2024/01/12 10:36:53;;;;;;;56.60;2.90;;;;;;;;;;5052013;28;20831;-76
2024/01/12 10:39:20;;;;;;;56.60;2.80;;;;;;;;;;5052521;28;20469;-75
2024/01/12 10:41:49;;;;;;;57.43;3.93;;;;;;;;;;5052321;28;20454;-76
2024/01/12 10:44:18;;;;;;;57.17;4.20;;;;;;;;;;5052980;28;20476;-75
2024/01/12 10:46:47;;;;;;;56.30;3.50;;;;;;;;;;5052639;28;20492;-75
2024/01/12 10:49:14;;;;;;;56.93;3.20;;;;;;;;;;5053610;28;20533;-76
2024/01/12 10:51:48;;;;;;;58.67;4.77;;;;;;;;;;5052483;28;20452;-76
2024/01/12 10:54:18;;;;;;;56.70;3.33;;;;;;;;;;5052627;28;20503;-76
2024/01/12 10:56:46;;;;;;;59.00;4.20;;;;;;;;;;5052440;28;20453;-76
2024/01/12 10:59:14;;;;;;;60.27;6.07;;;;;;;;;;5052428;28;20446;-76
2024/01/12 11:01:42;;;;;;;64.33;7.73;;;;;;;;;;5052547;28;20463;-76
2024/01/12 11:04:11;;;;;;;59.33;4.47;;;;;;;;;;5052816;28;20936;-76
2024/01/12 11:06:39;;;;;;;57.90;4.77;;;;;;;;;;5052527;28;20455;-76
2024/01/12 11:09:09;;;;;;;58.17;4.20;;;;;;;;;;5052932;28;20832;-74
2024/01/12 11:11:42;;;;;;;57.67;3.73;;;;;;;;;;5052449;28;20461;-76
2024/01/12 11:14:09;;;;;;;64.60;4.43;;;;;;;;;;5052511;28;20496;-73
2024/01/12 11:16:38;;;;;;;61.60;5.07;;;;;;;;;;5052321;28;20459;-74
2024/01/12 11:19:12;;;;;;;56.57;3.30;;;;;;;;;;5052429;28;20476;-74
2024/01/12 11:21:40;;;;;;;57.80;4.53;;;;;;;;;;5052562;28;20967;-74
2024/01/12 11:24:08;;;;;;;58.00;3.53;;;;;;;;;;5052156;28;20476;-74
2024/01/12 11:26:36;;;;;;;58.37;6.10;;;;;;;;;;5051607;28;20483;-75
2024/01/12 11:29:03;;;;;;;58.33;4.50;;;;;;;;;;5052221;28;20541;-75
2024/01/12 11:31:31;;;;;;;58.67;5.03;;;;;;;;;;5051444;28;20950;-75
2024/01/12 11:34:02;;;;;;;57.47;3.43;;;;;;;;;;5050592;28;20495;-75
2024/01/12 11:36:29;;;;;;;59.60;6.57;;;;;;;;;;5051025;28;20454;-75
2024/01/12 11:39:00;;;;;;;58.90;4.47;;;;;;;;;;5050962;28;20952;-75
2024/01/12 11:41:30;;;;;;;58.17;4.57;;;;;;;;;;5050854;28;20547;-76
2024/01/12 11:43:58;;;;;;;57.80;4.30;;;;;;;;;;5050881;28;20470;-75
2024/01/12 11:46:26;;;;;;;57.90;4.07;;;;;;;;;;5051078;28;20466;-76
2024/01/12 11:48:53;;;;;;;59.80;6.30;;;;;;;;;;5050757;28;20799;-75
2024/01/12 11:51:27;;;;;;;58.30;4.53;;;;;;;;;;5050612;28;20454;-75
2024/01/12 11:53:56;;;;;;;63.60;4.87;;;;;;;;;;5053023;28;20585;-75
2024/01/12 11:56:23;;;;;;;57.70;4.10;;;;;;;;;;5054850;28;20969;-75
2024/01/12 11:58:51;;;;;;;63.00;6.80;;;;;;;;;;5054871;28;20458;-75
2024/01/12 12:01:18;;;;;;;59.00;4.87;;;;;;;;;;5055652;28;20454;-74
2024/01/12 12:03:46;;;;;;;58.60;4.57;;;;;;;;;;5054986;28;20465;-75
2024/01/12 12:06:14;;;;;;;57.67;5.27;;;;;;;;;;5055139;28;20450;-75
2024/01/12 12:08:42;;;;;;;58.17;4.60;;;;;;;;;;5054653;28;20458;-75
2024/01/12 12:11:12;;;;;;;58.70;5.27;;;;;;;;;;5054536;28;20862;-76
2024/01/12 12:13:39;;;;;;;58.57;4.87;;;;;;;;;;5054383;28;20969;-76
2024/01/12 12:16:07;;;;;;;58.87;4.97;;;;;;;;;;5054641;28;20454;-76
2024/01/12 12:18:35;;;;;;;61.00;5.97;;;;;;;;;;5054820;28;20455;-76
2024/01/12 12:21:02;;;;;;;63.33;5.03;;;;;;;;;;5054567;28;20955;-76
2024/01/12 12:23:29;;;;;;;61.40;5.63;;;;;;;;;;5054299;28;20466;-76
2024/01/12 12:25:57;;;;;;;59.07;6.03;;;;;;;;;;5053645;28;20457;-76
2024/01/12 12:28:24;;;;;;;58.57;4.50;;;;;;;;;;5054913;28;20449;-76
2024/01/12 12:30:53;;;;;;;59.17;6.20;;;;;;;;;;5054886;28;20455;-76
2024/01/12 12:33:24;;;;;;;60.07;4.53;;;;;;;;;;5055068;28;20469;-76
2024/01/12 12:36:02;;;;;;;57.07;3.73;;;;;;;;;;5054933;28;20977;-76
2024/01/12 12:38:30;;;;;;;59.17;4.33;;;;;;;;;;5054729;28;20804;-73
2024/01/12 12:40:58;;;;;;;58.20;4.40;;;;;;;;;;5054512;28;20459;-73
2024/01/12 12:43:25;;;;;;;57.87;4.17;;;;;;;;;;5054466;28;20490;-75
2024/01/12 12:45:53;;;;;;;58.43;4.33;;;;;;;;;;5053986;28;20455;-75
2024/01/12 12:48:20;;;;;;;58.40;4.10;;;;;;;;;;5054189;28;20460;-75
2024/01/12 12:50:48;;;;;;;58.67;4.03;;;;;;;;;;5054349;28;20470;-74
2024/01/12 12:53:15;;;;;;;59.40;3.80;;;;;;;;;;5054141;28;20564;-75
2024/01/12 12:55:42;;;;;;;58.60;5.23;;;;;;;;;;5053783;28;20509;-76
2024/01/12 12:58:11;;;;;;;60.17;5.57;;;;;;;;;;5054436;28;20849;-75
2024/01/12 13:00:38;;;;;;;61.93;4.40;;;;;;;;;;5054105;28;20456;-75
2024/01/12 13:03:06;;;;;;;58.83;4.00;;;;;;;;;;5053505;28;20472;-75
2024/01/12 13:05:36;;;;;;;58.70;4.30;;;;;;;;;;5053049;28;20452;-75
2024/01/12 13:08:03;;;;;;;58.40;4.00;;;;;;;;;;5054240;28;20456;-75
2024/01/12 13:10:30;;;;;;;61.23;4.20;;;;;;;;;;5054283;28;20440;-75
2024/01/12 13:13:00;;;;;;;57.40;4.20;;;;;;;;;;5054645;28;20460;-75
2024/01/12 13:15:28;;;;;;;58.20;4.33;;;;;;;;;;5054620;28;20483;-75
2024/01/12 13:17:55;;;;;;;57.73;3.33;;;;;;;;;;5054667;28;20454;-75
2024/01/12 13:20:22;;;;;;;57.57;4.50;;;;;;;;;;5054494;28;20461;-75
2024/01/12 13:22:50;;;;;;;57.70;3.77;;;;;;;;;;5054019;28;20456;-75
2024/01/12 13:25:17;;;;;;;60.50;5.30;;;;;;;;;;5053835;28;20451;-75
2024/01/12 13:27:44;;;;;;;61.47;5.77;;;;;;;;;;5053928;28;20907;-75
2024/01/12 13:30:12;;;;;;;59.50;4.40;;;;;;;;;;5054015;28;20454;-76
2024/01/12 13:32:40;;;;;;;58.47;3.77;;;;;;;;;;5054382;28;20455;-76
2024/01/12 13:35:08;;;;;;;60.27;5.07;;;;;;;;;;5053669;28;20503;-76
2024/01/12 13:37:35;;;;;;;60.30;4.30;;;;;;;;;;5053271;28;20451;-76
2024/01/12 13:40:02;;;;;;;61.23;5.90;;;;;;;;;;5053805;28;20465;-74
2024/01/12 13:42:30;;;;;;;58.77;4.30;;;;;;;;;;5054599;28;20448;-75
2024/01/12 13:44:57;;;;;;;60.27;5.03;;;;;;;;;;5054042;28;20991;-74
2024/01/12 13:47:24;;;;;;;64.17;5.33;;;;;;;;;;5053837;28;20539;-74
2024/01/12 13:49:52;;;;;;;59.53;4.50;;;;;;;;;;5054069;28;20896;-74
2024/01/12 13:52:20;;;;;;;59.30;5.20;;;;;;;;;;5053488;28;20463;-75
2024/01/12 13:54:47;;;;;;;57.90;3.70;;;;;;;;;;5053341;28;20490;-74
2024/01/12 13:57:14;;;;;;;58.10;3.93;;;;;;;;;;5053891;28;20451;-74
2024/01/12 13:59:42;;;;;;;60.23;5.90;;;;;;;;;;5053791;28;20473;-75
2024/01/12 14:02:10;;;;;;;61.23;5.73;;;;;;;;;;5045396;28;20457;-74
2024/01/12 14:04:37;;;;;;;57.67;3.90;;;;;;;;;;5053568;28;20549;-74
2024/01/12 14:07:06;;;;;;;59.30;4.67;;;;;;;;;;5054028;28;20537;-74
2024/01/12 14:09:33;;;;;;;56.77;3.30;;;;;;;;;;5053672;28;20448;-74
2024/01/12 14:12:01;;;;;;;59.67;3.70;;;;;;;;;;5053284;28;20949;-74
2024/01/12 14:14:28;;;;;;;58.83;4.73;;;;;;;;;;5053287;28;20487;-74
2024/01/12 14:16:55;;;;;;;59.10;4.17;;;;;;;;;;5052441;28;20459;-74
2024/01/12 14:19:22;;;;;;;60.00;3.83;;;;;;;;;;5053380;28;20912;-74
2024/01/12 14:21:50;;;;;;;57.47;4.20;;;;;;;;;;5053366;28;20455;-74
2024/01/12 14:24:18;;;;;;;59.37;4.23;;;;;;;;;;5053740;28;20564;-74
2024/01/12 14:26:45;;;;;;;57.83;4.03;;;;;;;;;;5053497;28;20488;-75
2024/01/12 14:29:12;;;;;;;58.00;3.10;;;;;;;;;;5053038;28;20828;-75
2024/01/12 14:31:39;;;;;;;57.27;3.40;;;;;;;;;;5052636;28;20547;-75